createdAt,value
2019-03-08T00:00:55.760Z,3.25
2019-03-08T00:03:23.067Z,3.45
2019-03-08T00:05:50.478Z,3.02
2019-03-08T00:08:17.873Z,2.40
2019-03-08T00:10:45.156Z,4.10
2019-03-08T00:13:12.518Z,4.58
2019-03-08T00:15:39.902Z,4.83
2019-03-08T00:18:08.845Z,6.30
2019-03-08T00:20:36.231Z,6.05
2019-03-08T00:23:04.283Z,3.42
2019-03-08T00:25:31.664Z,3.70
2019-03-08T00:27:58.983Z,6.83
2019-03-08T00:30:26.458Z,3.30
2019-03-08T00:32:53.830Z,3.85
2019-03-08T00:46:36.146Z,3.20
2019-03-08T00:49:04.387Z,3.60
2019-03-08T00:51:32.282Z,2.80
2019-03-08T00:54:01.856Z,5.15
2019-03-08T00:56:29.374Z,7.17
2019-03-08T00:58:56.752Z,5.55
2019-03-08T01:01:24.130Z,3.95
2019-03-08T01:03:51.771Z,3.40
2019-03-08T01:06:19.224Z,3.80
2019-03-08T01:08:46.765Z,5.15
2019-03-08T01:11:14.376Z,4.15
2019-03-08T01:13:41.740Z,5.12
2019-03-08T01:16:09.411Z,3.75
2019-03-08T01:18:36.800Z,4.65
2019-03-08T01:21:05.265Z,2.85
2019-03-08T01:23:32.810Z,4.95
2019-03-08T01:26:00.426Z,5.92
2019-03-08T01:28:27.772Z,2.98
2019-03-08T01:30:55.079Z,2.80
2019-03-08T01:33:22.553Z,4.10
2019-03-08T01:35:50.024Z,2.85
2019-03-08T01:38:17.528Z,2.98
2019-03-08T01:40:45.040Z,4.03
2019-03-08T01:43:12.879Z,3.55
2019-03-08T01:45:40.346Z,3.30
2019-03-08T01:48:08.844Z,4.45
2019-03-08T01:50:36.300Z,3.70
2019-03-08T01:53:04.753Z,6.03
2019-03-08T01:55:32.188Z,4.80
2019-03-08T01:57:59.483Z,3.75
2019-03-08T02:00:26.861Z,5.92
2019-03-08T02:02:54.243Z,3.90
2019-03-08T02:05:21.894Z,4.17
2019-03-08T02:07:49.323Z,3.60
2019-03-08T02:10:16.786Z,3.80
2019-03-08T02:12:44.376Z,3.83
2019-03-08T02:15:13.317Z,6.40
2019-03-08T02:17:40.760Z,5.70
2019-03-08T02:20:09.941Z,5.22
2019-03-08T02:22:37.233Z,6.65
2019-03-08T02:25:05.301Z,4.92
2019-03-08T02:27:32.709Z,4.55
2019-03-08T02:30:00.020Z,6.30
2019-03-08T02:32:27.367Z,7.47
2019-03-08T02:34:54.834Z,6.83
2019-03-08T02:37:22.309Z,5.65
2019-03-08T02:39:49.741Z,3.77
2019-03-08T02:42:17.055Z,4.70
2019-03-08T02:44:45.029Z,4.47
2019-03-08T02:47:12.481Z,6.20
2019-03-08T02:49:39.823Z,4.30
2019-03-08T02:52:08.227Z,4.37
2019-03-08T02:54:36.673Z,5.42
2019-03-08T02:57:04.947Z,4.70
2019-03-08T02:59:32.276Z,4.53
2019-03-08T03:01:59.629Z,4.45
2019-03-08T03:04:26.991Z,3.92
2019-03-08T03:06:54.675Z,4.15
2019-03-08T03:09:22.077Z,4.42
2019-03-08T03:11:49.468Z,4.80
2019-03-08T03:14:16.867Z,6.33
2019-03-08T03:16:44.453Z,5.00
2019-03-08T03:19:11.883Z,7.20
2019-03-08T03:21:39.342Z,5.37
2019-03-08T03:24:06.641Z,6.40
2019-03-08T03:26:34.091Z,5.25
2019-03-08T03:29:01.449Z,5.65
2019-03-08T03:31:28.840Z,9.88
2019-03-08T03:33:56.239Z,6.35
2019-03-08T03:36:23.665Z,7.28
2019-03-08T03:38:51.017Z,4.45
2019-03-08T03:41:18.395Z,4.25
2019-03-08T03:43:47.135Z,4.15
2019-03-08T03:46:14.783Z,4.05
2019-03-08T03:48:42.221Z,4.35
2019-03-08T03:51:09.579Z,3.62
2019-03-08T03:53:38.015Z,4.75
2019-03-08T03:56:05.561Z,3.92
2019-03-08T03:58:32.853Z,4.55
2019-03-08T04:01:01.867Z,4.12
2019-03-08T04:03:29.243Z,4.17
2019-03-08T04:05:56.530Z,4.50
2019-03-08T04:08:23.996Z,3.77
2019-03-08T04:10:51.342Z,5.30
2019-03-08T04:13:18.770Z,3.60
2019-03-08T04:15:46.124Z,4.35
2019-03-08T04:18:13.488Z,3.70
2019-03-08T04:20:40.953Z,3.92
2019-03-08T04:23:08.363Z,4.30
2019-03-08T04:25:35.781Z,3.70
2019-03-08T04:28:04.123Z,5.42
2019-03-08T04:30:31.800Z,3.70
2019-03-08T04:32:59.228Z,4.25
2019-03-08T04:35:27.292Z,4.28
2019-03-08T04:37:54.764Z,4.60
2019-03-08T04:40:22.170Z,7.90
2019-03-08T04:42:49.513Z,4.65
2019-03-08T04:45:17.108Z,6.20
2019-03-08T04:47:44.749Z,5.30
2019-03-08T04:50:13.008Z,7.92
2019-03-08T04:52:49.500Z,4.17
2019-03-08T04:55:20.537Z,6.80
2019-03-08T04:57:48.951Z,4.30
2019-03-08T05:00:17.259Z,4.30
2019-03-08T05:02:45.484Z,4.90
2019-03-08T05:05:13.128Z,4.80
2019-03-08T05:07:40.527Z,5.00
2019-03-08T05:10:14.578Z,4.50
2019-03-08T05:12:42.148Z,5.15
2019-03-08T05:15:09.580Z,4.37
2019-03-08T05:17:37.052Z,5.95
2019-03-08T05:20:05.646Z,5.05
2019-03-08T05:22:36.628Z,6.47
2019-03-08T05:25:05.388Z,4.95
2019-03-08T05:27:33.874Z,5.40
2019-03-08T05:30:01.427Z,5.65
2019-03-08T05:32:28.768Z,7.20
2019-03-08T05:34:56.476Z,4.80
2019-03-08T05:37:24.004Z,5.60
2019-03-08T05:39:51.366Z,5.33
2019-03-08T05:42:18.650Z,5.40
2019-03-08T05:44:46.614Z,9.63
2019-03-08T05:47:13.964Z,5.75
2019-03-08T05:49:41.349Z,7.22
2019-03-08T05:52:12.663Z,5.95
2019-03-08T05:54:40.070Z,7.37
2019-03-08T05:57:08.077Z,4.55
2019-03-08T05:59:37.050Z,5.70
2019-03-08T06:02:04.411Z,7.37
2019-03-08T06:04:31.792Z,7.08
2019-03-08T06:06:59.113Z,7.50
2019-03-08T06:09:26.501Z,6.20
2019-03-08T06:11:54.938Z,10.05
2019-03-08T06:14:22.677Z,6.05
2019-03-08T06:16:50.154Z,5.72
2019-03-08T06:19:18.559Z,6.90
2019-03-08T06:21:45.908Z,10.45
2019-03-08T06:24:13.281Z,8.33
2019-03-08T06:26:40.683Z,7.72
2019-03-08T06:29:08.043Z,6.55
2019-03-08T06:31:35.505Z,6.17
2019-03-08T06:34:02.917Z,7.85
2019-03-08T06:36:30.273Z,7.78
2019-03-08T06:38:57.555Z,7.40
2019-03-08T06:41:24.877Z,6.47
2019-03-08T06:43:52.197Z,9.45
2019-03-08T06:46:19.564Z,7.58
2019-03-08T06:48:47.017Z,8.38
2019-03-08T06:51:14.311Z,9.48
2019-03-08T06:53:41.693Z,8.70
2019-03-08T06:56:09.067Z,16.37
2019-03-08T06:58:38.061Z,8.78
2019-03-08T07:01:06.527Z,10.85
2019-03-08T07:03:34.011Z,12.30
2019-03-08T07:06:01.641Z,9.90
2019-03-08T07:08:31.573Z,9.20
2019-03-08T07:10:58.998Z,10.03
2019-03-08T07:13:28.059Z,7.67
2019-03-08T07:15:55.585Z,10.35
2019-03-08T07:18:22.977Z,8.63
2019-03-08T07:20:57.817Z,11.78
2019-03-08T07:23:29.759Z,5.00
2019-03-08T07:25:58.749Z,6.15
2019-03-08T07:28:45.681Z,9.55
2019-03-08T07:31:20.501Z,10.55
2019-03-08T07:33:53.460Z,7.37
2019-03-08T07:36:38.567Z,12.93
2019-03-08T07:39:24.910Z,6.55
2019-03-08T07:41:53.910Z,8.68
2019-03-08T07:44:25.824Z,8.83
2019-03-08T07:47:10.613Z,7.15
2019-03-08T07:49:39.619Z,5.85
2019-03-08T07:52:17.528Z,7.35
2019-03-08T07:54:52.910Z,9.23
2019-03-08T07:57:22.992Z,7.35
2019-03-08T07:59:58.236Z,9.13
2019-03-08T08:02:30.225Z,10.03
2019-03-08T08:05:00.012Z,7.70
2019-03-08T08:07:31.714Z,13.05
2019-03-08T08:10:00.648Z,12.00
2019-03-08T08:12:41.722Z,10.72
2019-03-08T08:15:28.262Z,15.10
2019-03-08T08:17:57.278Z,18.45
2019-03-08T08:20:29.162Z,10.85
2019-03-08T08:23:00.900Z,13.50
2019-03-08T08:25:47.225Z,19.02
2019-03-08T08:28:22.151Z,11.63
2019-03-08T08:31:09.211Z,14.83
2019-03-08T08:33:44.250Z,14.23
2019-03-08T08:36:15.930Z,14.58
2019-03-08T08:38:44.929Z,15.25
2019-03-08T08:41:13.884Z,16.12
2019-03-08T08:43:42.816Z,19.67
2019-03-08T08:46:11.805Z,13.62
2019-03-08T08:48:55.838Z,17.98
2019-03-08T08:51:42.962Z,15.20
2019-03-08T08:54:24.570Z,15.38
2019-03-08T08:57:11.756Z,19.95
2019-03-08T08:59:57.001Z,12.60
2019-03-08T09:02:28.834Z,18.27
2019-03-08T09:05:14.474Z,21.45
2019-03-08T09:07:43.414Z,14.18
2019-03-08T09:10:12.444Z,15.40
2019-03-08T09:12:50.102Z,17.50
2019-03-08T09:15:22.034Z,13.22
2019-03-08T09:18:08.672Z,18.70
2019-03-08T09:20:43.463Z,15.43
2019-03-08T09:23:12.707Z,20.95
2019-03-08T09:25:50.472Z,17.20
2019-03-08T09:28:22.171Z,9.25
2019-03-08T09:30:53.798Z,17.10
2019-03-08T09:33:22.818Z,17.45
2019-03-08T09:35:52.032Z,14.73
2019-03-08T09:38:23.762Z,15.45
2019-03-08T09:41:01.598Z,16.17
2019-03-08T09:43:30.535Z,13.65
2019-03-08T09:45:59.530Z,18.85
2019-03-08T09:48:48.564Z,19.60
2019-03-08T09:51:28.839Z,14.35
2019-03-08T09:53:58.763Z,15.10
2019-03-08T09:56:33.829Z,9.53
2019-03-08T09:59:14.492Z,10.88
2019-03-08T10:01:49.406Z,11.80
2019-03-08T10:04:21.282Z,14.50
2019-03-08T10:06:56.028Z,11.83
2019-03-08T10:09:25.026Z,16.35
2019-03-08T10:11:54.118Z,11.43
2019-03-08T10:14:23.069Z,9.40
2019-03-08T10:17:06.935Z,13.00
2019-03-08T10:19:50.608Z,16.07
2019-03-08T10:22:19.577Z,12.20
2019-03-08T10:24:57.446Z,12.03
2019-03-08T10:27:38.306Z,14.80
2019-03-08T10:30:07.490Z,8.90
2019-03-08T10:32:48.369Z,11.78
2019-03-08T10:35:26.605Z,10.53
2019-03-08T10:38:10.731Z,11.83
2019-03-08T10:40:57.595Z,11.45
2019-03-08T10:43:29.571Z,12.13
2019-03-08T10:45:58.488Z,9.70
2019-03-08T10:48:27.545Z,8.70
2019-03-08T10:51:05.297Z,10.43
2019-03-08T10:54:00.391Z,11.70
2019-03-08T10:56:22.719Z,10.53
2019-03-08T10:59:09.835Z,9.90
2019-03-08T11:01:53.744Z,10.27
2019-03-08T11:04:25.314Z,10.13
2019-03-08T11:07:10.577Z,12.83
2019-03-08T11:09:51.655Z,11.50
2019-03-08T11:12:37.005Z,11.93
2019-03-08T11:15:10.937Z,11.03
2019-03-08T11:17:39.949Z,11.93
2019-03-08T11:20:26.367Z,10.93
2019-03-08T11:23:11.360Z,11.17
2019-03-08T11:25:55.291Z,10.13
2019-03-08T11:28:24.263Z,9.60
2019-03-08T11:30:55.789Z,10.58
2019-03-08T11:33:36.739Z,10.05
2019-03-08T11:36:08.439Z,12.60
2019-03-08T11:38:37.383Z,15.95
2019-03-08T11:41:09.271Z,12.95
2019-03-08T11:43:50.253Z,11.48
2019-03-08T11:46:25.013Z,11.08
2019-03-08T11:48:54.005Z,12.00
2019-03-08T11:51:39.123Z,8.80
2019-03-08T11:54:13.650Z,10.58
2019-03-08T11:56:56.367Z,11.30
2019-03-08T11:59:36.735Z,10.53
2019-03-08T12:02:22.447Z,11.97
2019-03-08T12:04:54.323Z,18.25
2019-03-08T12:07:26.049Z,12.05
2019-03-08T12:09:57.805Z,8.50
2019-03-08T12:12:42.771Z,9.50
2019-03-08T12:15:14.442Z,11.57
2019-03-08T12:17:49.129Z,14.43
2019-03-08T12:20:18.249Z,15.85
2019-03-08T12:22:49.964Z,17.25
2019-03-08T12:25:18.951Z,9.68
2019-03-08T12:28:04.317Z,12.13
2019-03-08T12:30:36.204Z,10.70
2019-03-08T12:33:11.010Z,12.33
2019-03-08T12:35:45.936Z,11.75
2019-03-08T12:38:14.858Z,14.03
2019-03-08T12:40:43.786Z,12.98
2019-03-08T12:43:12.780Z,11.40
2019-03-08T12:45:50.538Z,10.00
2019-03-08T12:48:23.836Z,10.90
2019-03-08T12:51:02.104Z,11.18
2019-03-08T12:53:37.003Z,14.43
2019-03-08T12:56:06.020Z,10.40
2019-03-08T12:58:46.712Z,12.70
2019-03-08T13:01:15.675Z,8.63
2019-03-08T13:03:44.698Z,9.73
2019-03-08T13:06:19.361Z,14.45
2019-03-08T13:08:48.376Z,13.48
2019-03-08T13:11:15.681Z,13.58
2019-03-08T13:13:43.625Z,10.65
2019-03-08T13:16:11.081Z,21.50
2019-03-08T13:18:38.494Z,11.85
2019-03-08T13:21:05.880Z,6.97
2019-03-08T13:23:33.254Z,12.18
2019-03-08T13:26:00.739Z,9.08
2019-03-08T13:28:28.145Z,5.87
2019-03-08T13:30:55.518Z,8.18
2019-03-08T13:33:22.892Z,11.55
2019-03-08T13:35:50.270Z,5.22
2019-03-08T13:38:17.638Z,16.45
2019-03-08T13:40:44.958Z,11.83
2019-03-08T13:43:12.296Z,11.10
2019-03-08T13:45:39.592Z,12.63
2019-03-08T13:48:07.024Z,10.58
2019-03-08T13:50:34.378Z,11.33
2019-03-08T13:53:01.742Z,10.93
2019-03-08T13:55:29.041Z,9.70
2019-03-08T13:57:56.414Z,11.25
2019-03-08T14:00:23.848Z,12.80
2019-03-08T14:02:51.252Z,8.85
2019-03-08T14:05:18.859Z,8.93
2019-03-08T14:07:46.231Z,11.73
2019-03-08T14:10:15.118Z,9.00
2019-03-08T14:12:42.519Z,10.03
2019-03-08T14:15:11.335Z,11.43
2019-03-08T14:17:38.797Z,10.18
2019-03-08T14:20:07.629Z,12.20
2019-03-08T14:22:34.939Z,10.85
2019-03-08T14:25:02.311Z,10.78
2019-03-08T14:27:29.698Z,10.72
2019-03-08T14:29:59.208Z,12.98
2019-03-08T14:32:26.864Z,8.08
2019-03-08T14:34:55.046Z,11.57
2019-03-08T14:37:22.424Z,10.93
2019-03-08T14:39:49.829Z,8.38
2019-03-08T14:42:21.565Z,13.50
2019-03-08T14:44:50.496Z,10.38
2019-03-08T14:47:19.521Z,10.82
2019-03-08T14:49:47.007Z,13.43
2019-03-08T14:52:14.364Z,9.85
2019-03-08T14:54:42.307Z,9.43
2019-03-08T14:57:13.092Z,13.60
2019-03-08T14:59:39.749Z,10.90
2019-03-08T15:02:07.055Z,14.35
2019-03-08T15:04:34.727Z,13.15
2019-03-08T15:07:04.683Z,12.30
2019-03-08T15:09:31.156Z,9.45
2019-03-08T15:11:59.587Z,7.58
2019-03-08T15:14:30.335Z,11.95
2019-03-08T15:16:56.575Z,13.28
2019-03-08T15:19:24.174Z,8.78
2019-03-08T15:21:51.503Z,8.08
2019-03-08T15:24:18.891Z,15.10
2019-03-08T15:26:46.385Z,16.93
2019-03-08T15:29:13.777Z,14.35
2019-03-08T15:31:41.162Z,13.58
2019-03-08T15:34:08.636Z,19.50
2019-03-08T15:36:36.079Z,17.48
2019-03-08T15:39:04.583Z,15.10
2019-03-08T15:41:32.391Z,14.28
2019-03-08T15:43:59.962Z,14.33
2019-03-08T15:46:27.401Z,7.92
2019-03-08T15:48:56.703Z,15.95
2019-03-08T15:51:25.346Z,8.28
2019-03-08T15:53:54.425Z,8.10
2019-03-08T15:56:22.230Z,8.83
2019-03-08T15:58:50.860Z,10.08
2019-03-08T16:01:18.243Z,14.78
2019-03-08T16:03:46.001Z,6.47
2019-03-08T16:06:13.520Z,9.40
2019-03-08T16:08:40.975Z,10.40
2019-03-08T16:11:08.280Z,11.40
2019-03-08T16:13:35.720Z,12.75
2019-03-08T16:16:03.101Z,7.47
2019-03-08T16:18:30.511Z,8.68
2019-03-08T16:20:57.869Z,6.75
2019-03-08T16:23:25.333Z,11.68
2019-03-08T16:25:52.664Z,9.20
2019-03-08T16:28:20.018Z,10.00
2019-03-08T16:30:57.626Z,9.30
2019-03-08T16:33:26.817Z,8.60
2019-03-08T16:36:11.610Z,5.25
2019-03-08T16:38:55.519Z,7.40
2019-03-08T16:41:33.498Z,6.72
2019-03-08T16:44:05.447Z,7.28
2019-03-08T16:46:40.530Z,7.85
2019-03-08T16:49:18.984Z,5.55
2019-03-08T16:52:05.694Z,5.03
2019-03-08T16:54:39.610Z,9.93
2019-03-08T16:57:08.610Z,9.60
2019-03-08T16:59:40.572Z,6.08
2019-03-08T17:02:18.375Z,10.03
2019-03-08T17:05:04.110Z,6.03
2019-03-08T17:07:33.117Z,10.48
2019-03-08T17:10:07.921Z,7.50
2019-03-08T17:12:40.754Z,7.00
2019-03-08T17:15:15.592Z,11.25
2019-03-08T17:17:56.643Z,7.45
2019-03-08T17:20:41.760Z,5.42
2019-03-08T17:23:16.727Z,7.95
2019-03-08T17:25:48.782Z,5.62
2019-03-08T17:28:23.678Z,10.78
2019-03-08T17:31:01.980Z,5.00
2019-03-08T17:33:31.274Z,8.13
2019-03-08T17:36:03.083Z,9.10
2019-03-08T17:38:34.977Z,6.50
2019-03-08T17:41:22.633Z,5.58
2019-03-08T17:43:54.645Z,10.23
2019-03-08T17:46:29.306Z,5.10
2019-03-08T17:48:58.565Z,9.43
2019-03-08T17:51:33.463Z,8.75
2019-03-08T17:54:12.631Z,6.47
2019-03-08T17:56:41.836Z,5.17
2019-03-08T17:59:16.769Z,6.95
2019-03-08T18:01:46.151Z,14.78
2019-03-08T18:04:31.604Z,7.47
2019-03-08T18:07:16.997Z,11.15
2019-03-08T18:09:51.688Z,11.10
2019-03-08T18:12:26.541Z,12.37
2019-03-08T18:14:55.557Z,10.78
2019-03-08T18:17:24.503Z,8.83
2019-03-08T18:20:09.253Z,11.50
2019-03-08T18:22:38.275Z,16.30
2019-03-08T18:25:07.283Z,10.53
2019-03-08T18:27:36.281Z,13.25
2019-03-08T18:30:09.391Z,11.03
2019-03-08T18:32:41.192Z,9.90
2019-03-08T18:35:10.219Z,9.10
2019-03-08T18:37:42.217Z,8.78
2019-03-08T18:40:11.349Z,9.13
2019-03-08T18:42:56.361Z,14.87
2019-03-08T18:45:41.473Z,10.85
2019-03-08T18:48:19.631Z,9.78
2019-03-08T18:50:48.700Z,6.12
2019-03-08T18:53:50.213Z,7.95
2019-03-08T18:56:19.163Z,12.45
2019-03-08T18:59:06.073Z,7.85
2019-03-08T19:01:47.059Z,12.88
2019-03-08T19:04:24.511Z,7.33
2019-03-08T19:06:53.853Z,12.43
2019-03-08T19:09:25.735Z,9.03
2019-03-08T19:11:54.737Z,10.48
2019-03-08T19:14:26.789Z,15.32
2019-03-08T19:17:01.845Z,11.40
2019-03-08T19:19:43.122Z,13.05
2019-03-08T19:22:28.264Z,11.12
2019-03-08T19:25:06.420Z,7.30
2019-03-08T19:27:46.375Z,6.83
2019-03-08T19:30:34.850Z,10.88
2019-03-08T19:33:07.199Z,11.65
2019-03-08T19:35:51.289Z,10.72
2019-03-08T19:38:23.015Z,9.80
2019-03-08T19:41:07.112Z,8.95
2019-03-08T19:43:52.235Z,10.15
2019-03-08T19:46:27.063Z,9.30
2019-03-08T19:49:02.200Z,9.78
2019-03-08T19:51:33.937Z,10.88
2019-03-08T19:54:12.373Z,9.95
2019-03-08T19:56:42.987Z,9.33
2019-03-08T19:59:30.023Z,8.83
2019-03-08T20:02:07.831Z,9.00
2019-03-08T20:04:40.240Z,12.35
2019-03-08T20:07:12.210Z,11.83
2019-03-08T20:09:44.376Z,13.95
2019-03-08T20:12:16.004Z,10.70
2019-03-08T20:15:03.612Z,10.70
2019-03-08T20:17:35.390Z,11.55
2019-03-08T20:20:13.487Z,10.30
2019-03-08T20:22:51.550Z,9.75
2019-03-08T20:25:23.571Z,8.55
2019-03-08T20:27:58.406Z,15.60
2019-03-08T20:30:27.491Z,10.30
2019-03-08T20:33:08.562Z,6.97
2019-03-08T20:35:43.821Z,11.50
2019-03-08T20:38:19.344Z,13.05
2019-03-08T20:40:49.102Z,11.73
2019-03-08T20:43:18.359Z,11.48
2019-03-08T20:45:47.384Z,12.35
2019-03-08T20:48:14.836Z,10.65
2019-03-08T20:50:42.224Z,14.73
2019-03-08T20:53:09.539Z,13.18
2019-03-08T20:55:36.890Z,12.60
2019-03-08T20:58:04.264Z,17.23
2019-03-08T21:00:31.823Z,14.55
2019-03-08T21:02:59.362Z,13.00
2019-03-08T21:05:27.009Z,12.55
2019-03-08T21:07:54.467Z,13.65
2019-03-08T21:10:21.811Z,16.57
2019-03-08T21:12:49.196Z,12.05
2019-03-08T21:15:24.986Z,15.00
2019-03-08T21:17:45.584Z,12.18
2019-03-08T21:20:13.302Z,12.25
2019-03-08T21:22:40.666Z,14.50
2019-03-08T21:25:12.091Z,15.55
2019-03-08T21:27:39.474Z,17.75
2019-03-08T21:30:11.348Z,10.45
2019-03-08T21:32:38.789Z,11.95
2019-03-08T21:35:06.336Z,16.73
2019-03-08T21:37:33.640Z,15.00
2019-03-08T21:40:01.137Z,13.08
2019-03-08T21:42:28.582Z,13.78
2019-03-08T21:45:00.699Z,11.95
2019-03-08T21:47:28.024Z,12.95
2019-03-08T21:49:55.366Z,16.95
2019-03-08T21:52:22.748Z,11.88
2019-03-08T21:54:50.128Z,13.25
2019-03-08T21:57:18.554Z,14.13
2019-03-08T21:59:45.982Z,11.53
2019-03-08T22:02:13.430Z,26.62
2019-03-08T22:04:42.492Z,14.93
2019-03-08T22:09:55.790Z,11.73
2019-03-08T22:12:23.132Z,12.68
2019-03-08T22:14:50.500Z,10.40
2019-03-08T22:17:18.749Z,12.00
2019-03-08T22:19:51.348Z,9.48
2019-03-08T22:22:20.371Z,9.48
2019-03-08T22:24:47.760Z,17.05
2019-03-08T22:27:15.210Z,10.13
2019-03-08T22:29:42.594Z,15.05
2019-03-08T22:32:10.402Z,10.23
2019-03-08T22:34:37.740Z,11.45
2019-03-08T22:37:07.306Z,15.05
2019-03-08T22:39:34.871Z,15.13
2019-03-08T22:42:10.142Z,14.13
2019-03-08T22:44:37.651Z,13.70
2019-03-08T22:47:05.014Z,17.35
2019-03-08T22:49:32.323Z,14.85
2019-03-08T22:51:59.833Z,15.98
2019-03-08T22:54:29.302Z,14.23
2019-03-08T22:56:56.698Z,13.68
2019-03-08T22:59:24.313Z,15.65
2019-03-08T23:01:53.414Z,12.10
2019-03-08T23:04:20.805Z,13.83
2019-03-08T23:06:48.208Z,11.95
2019-03-08T23:09:16.023Z,13.25
2019-03-08T23:11:43.380Z,11.73
2019-03-08T23:14:10.878Z,11.73
2019-03-08T23:16:38.254Z,21.37
2019-03-08T23:19:05.583Z,11.45
2019-03-08T23:21:33.059Z,13.65
2019-03-08T23:24:05.823Z,15.30
2019-03-08T23:26:34.886Z,12.50
2019-03-08T23:29:06.579Z,15.38
2019-03-08T23:31:38.457Z,15.43
2019-03-08T23:34:06.276Z,14.87
2019-03-08T23:36:33.671Z,15.38
2019-03-08T23:39:01.327Z,12.13
2019-03-08T23:41:32.277Z,12.70
2019-03-08T23:44:00.055Z,13.30
2019-03-08T23:46:27.509Z,14.98
2019-03-08T23:48:54.831Z,10.78
2019-03-08T23:51:22.183Z,12.30
2019-03-08T23:53:50.058Z,14.85
2019-03-08T23:56:17.499Z,11.28
2019-03-08T23:58:44.829Z,13.03
